createdAt,value
2022-11-22T00:00:17.735Z,2.80
2022-11-22T00:02:44.729Z,2.63
2022-11-22T00:05:12.125Z,2.60
2022-11-22T00:07:39.453Z,2.60
2022-11-22T00:10:08.240Z,2.80
2022-11-22T00:12:35.287Z,2.97
2022-11-22T00:15:02.435Z,2.63
2022-11-22T00:17:29.084Z,2.67
2022-11-22T00:19:55.728Z,2.70
2022-11-22T00:22:22.421Z,2.60
2022-11-22T00:24:51.315Z,2.40
2022-11-22T00:27:18.949Z,2.53
2022-11-22T00:29:45.617Z,2.80
2022-11-22T00:32:13.142Z,2.60
2022-11-22T00:34:40.334Z,2.70
2022-11-22T00:37:07.321Z,2.60
2022-11-22T00:39:34.457Z,3.20
2022-11-22T00:42:01.533Z,2.97
2022-11-22T00:44:28.594Z,2.83
2022-11-22T00:46:55.783Z,2.90
2022-11-22T00:49:22.498Z,2.70
2022-11-22T00:51:49.189Z,2.67
2022-11-22T00:54:16.286Z,2.60
2022-11-22T00:56:42.936Z,2.37
2022-11-22T00:59:10.014Z,2.40
2022-11-22T01:01:37.097Z,2.43
2022-11-22T01:04:03.918Z,2.60
2022-11-22T01:06:31.025Z,2.50
2022-11-22T01:08:58.064Z,2.50
2022-11-22T01:11:25.117Z,2.93
2022-11-22T01:13:51.786Z,2.60
2022-11-22T01:16:18.505Z,2.60
2022-11-22T01:18:45.779Z,2.20
2022-11-22T01:21:12.580Z,3.57
2022-11-22T01:23:39.767Z,2.43
2022-11-22T01:26:09.563Z,2.90
2022-11-22T01:28:36.735Z,2.43
2022-11-22T01:31:04.881Z,2.60
2022-11-22T01:33:32.020Z,2.57
2022-11-22T01:35:59.139Z,3.00
2022-11-22T01:38:26.252Z,3.07
2022-11-22T01:40:53.472Z,2.60
2022-11-22T01:43:26.103Z,2.67
2022-11-22T01:46:03.788Z,2.37
2022-11-22T01:48:54.443Z,2.40
2022-11-22T01:51:29.647Z,2.60
2022-11-22T01:54:00.530Z,2.57
2022-11-22T01:56:29.646Z,2.40
2022-11-22T01:59:03.637Z,2.77
2022-11-22T02:01:30.935Z,2.50
2022-11-22T02:04:00.600Z,2.50
2022-11-22T02:06:58.471Z,2.60
2022-11-22T02:09:26.760Z,2.03
2022-11-22T02:11:58.349Z,2.37
2022-11-22T02:14:26.633Z,2.23
2022-11-22T02:16:53.788Z,2.40
2022-11-22T02:19:45.423Z,2.17
2022-11-22T02:22:32.871Z,2.37
2022-11-22T02:25:15.455Z,2.27
2022-11-22T02:27:42.320Z,2.10
2022-11-22T02:30:09.375Z,2.10
2022-11-22T02:32:36.136Z,2.10
2022-11-22T02:35:03.004Z,2.20
2022-11-22T02:37:32.626Z,2.03
2022-11-22T02:40:07.558Z,2.57
2022-11-22T02:42:35.492Z,2.30
2022-11-22T02:45:02.574Z,2.10
2022-11-22T02:47:29.655Z,2.10
2022-11-22T02:49:56.785Z,2.13
2022-11-22T02:52:23.471Z,2.40
2022-11-22T02:54:50.567Z,2.13
2022-11-22T02:57:17.218Z,1.90
2022-11-22T02:59:43.874Z,2.10
2022-11-22T03:02:10.528Z,2.20
2022-11-22T03:04:37.696Z,2.13
2022-11-22T03:07:04.496Z,2.23
2022-11-22T03:09:32.304Z,2.37
2022-11-22T03:11:59.376Z,2.10
2022-11-22T03:14:26.336Z,2.20
2022-11-22T03:16:53.381Z,2.03
2022-11-22T03:19:20.565Z,2.00
2022-11-22T03:21:47.848Z,1.90
2022-11-22T03:24:14.955Z,2.03
2022-11-22T03:26:42.270Z,2.20
2022-11-22T03:29:08.942Z,2.00
2022-11-22T03:31:36.146Z,2.33
2022-11-22T03:34:02.835Z,1.90
2022-11-22T03:36:29.924Z,2.20
2022-11-22T03:38:56.965Z,2.13
2022-11-22T03:41:23.646Z,2.60
2022-11-22T03:43:50.315Z,2.00
2022-11-22T03:46:19.547Z,2.40
2022-11-22T03:48:46.989Z,3.03
2022-11-22T03:51:13.902Z,1.97
2022-11-22T03:53:40.968Z,2.40
2022-11-22T03:56:07.704Z,2.10
2022-11-22T03:58:34.660Z,2.30
2022-11-22T04:01:01.826Z,2.47
2022-11-22T04:03:28.801Z,2.37
2022-11-22T04:05:55.939Z,2.30
2022-11-22T04:08:22.694Z,2.30
2022-11-22T04:10:50.516Z,2.30
2022-11-22T04:13:17.502Z,2.20
2022-11-22T04:15:44.552Z,2.13
2022-11-22T04:18:12.419Z,3.00
2022-11-22T04:20:57.980Z,2.20
2022-11-22T04:23:32.271Z,2.20
2022-11-22T04:26:00.808Z,2.40
2022-11-22T04:28:53.581Z,2.40
2022-11-22T04:31:33.365Z,2.20
2022-11-22T04:34:00.023Z,2.03
2022-11-22T04:36:27.085Z,2.73
2022-11-22T04:38:54.165Z,2.33
2022-11-22T04:41:21.217Z,2.50
2022-11-22T04:44:06.536Z,2.50
2022-11-22T04:46:33.646Z,2.30
2022-11-22T04:49:00.689Z,2.40
2022-11-22T04:51:46.807Z,2.30
2022-11-22T04:54:13.854Z,2.57
2022-11-22T04:56:40.545Z,2.27
2022-11-22T04:59:07.255Z,2.50
2022-11-22T05:01:34.381Z,2.57
2022-11-22T05:04:01.161Z,2.70
2022-11-22T05:06:28.209Z,2.40
2022-11-22T05:08:55.256Z,2.40
2022-11-22T05:11:21.910Z,4.57
2022-11-22T05:13:48.604Z,6.77
2022-11-22T05:16:15.941Z,7.47
2022-11-22T05:18:42.753Z,7.13
2022-11-22T05:21:11.412Z,5.80
2022-11-22T05:23:57.003Z,5.80
2022-11-22T05:26:35.148Z,5.10
2022-11-22T05:29:10.363Z,4.57
2022-11-22T05:31:38.497Z,4.20
2022-11-22T05:34:05.595Z,4.60
2022-11-22T05:36:34.135Z,4.60
2022-11-22T05:39:01.465Z,4.27
2022-11-22T05:41:28.582Z,4.07
2022-11-22T05:43:56.729Z,4.40
2022-11-22T05:46:28.938Z,3.80
2022-11-22T05:48:57.671Z,3.90
2022-11-22T05:51:32.267Z,3.67
2022-11-22T05:54:00.993Z,3.57
2022-11-22T05:56:27.759Z,3.33
2022-11-22T05:58:54.955Z,3.50
2022-11-22T06:01:23.534Z,3.70
2022-11-22T06:03:50.769Z,3.63
2022-11-22T06:06:17.886Z,7.20
2022-11-22T06:08:47.673Z,4.93
2022-11-22T06:11:27.806Z,5.53
2022-11-22T06:13:57.562Z,4.73
2022-11-22T06:16:25.941Z,4.07
2022-11-22T06:18:53.702Z,4.67
2022-11-22T06:21:23.726Z,4.07
2022-11-22T06:23:51.721Z,3.90
2022-11-22T06:26:20.359Z,3.57
2022-11-22T06:28:47.820Z,3.20
2022-11-22T06:31:23.002Z,3.37
2022-11-22T06:33:50.464Z,3.77
2022-11-22T06:36:19.926Z,3.20
2022-11-22T06:38:46.764Z,3.13
2022-11-22T06:41:16.170Z,3.10
2022-11-22T06:43:48.631Z,3.13
2022-11-22T06:46:17.620Z,3.30
2022-11-22T06:48:44.293Z,3.50
2022-11-22T06:51:14.098Z,3.07
2022-11-22T06:53:49.267Z,2.90
2022-11-22T06:56:16.672Z,3.37
2022-11-22T06:58:44.217Z,3.00
2022-11-22T07:01:16.605Z,3.30
2022-11-22T07:03:43.952Z,3.70
2022-11-22T07:06:12.628Z,2.73
2022-11-22T07:08:40.030Z,3.10
2022-11-22T07:11:12.545Z,3.27
2022-11-22T07:13:39.695Z,4.30
2022-11-22T07:16:08.479Z,3.83
2022-11-22T07:18:35.577Z,3.40
2022-11-22T07:21:12.852Z,3.43
2022-11-22T07:23:44.280Z,3.40
2022-11-22T07:26:12.325Z,3.83
2022-11-22T07:28:39.380Z,3.80
2022-11-22T07:31:08.293Z,3.17
2022-11-22T07:33:35.395Z,3.23
2022-11-22T07:36:10.153Z,3.60
2022-11-22T07:38:38.071Z,3.57
2022-11-22T07:41:05.993Z,3.30
2022-11-22T07:43:33.401Z,2.70
2022-11-22T07:46:00.887Z,3.10
2022-11-22T07:48:27.580Z,3.30
2022-11-22T07:50:54.661Z,2.60
2022-11-22T07:53:21.764Z,3.27
2022-11-22T07:55:48.879Z,2.93
2022-11-22T07:58:15.638Z,2.83
2022-11-22T08:00:42.326Z,3.00
2022-11-22T08:03:09.566Z,3.27
2022-11-22T08:05:36.265Z,3.27
2022-11-22T08:08:03.449Z,3.30
2022-11-22T08:10:30.115Z,3.40
2022-11-22T08:13:00.053Z,3.00
2022-11-22T08:15:27.185Z,3.13
2022-11-22T08:17:53.923Z,3.00
2022-11-22T08:20:20.683Z,3.07
2022-11-22T08:22:47.358Z,2.90
2022-11-22T08:25:14.530Z,2.50
2022-11-22T08:27:42.894Z,2.90
2022-11-22T08:30:12.755Z,3.03
2022-11-22T08:32:39.823Z,2.60
2022-11-22T08:35:07.275Z,2.97
2022-11-22T08:37:34.623Z,3.27
2022-11-22T08:40:01.328Z,2.67
2022-11-22T08:42:28.004Z,2.53
2022-11-22T08:44:55.529Z,2.93
2022-11-22T08:47:22.207Z,2.70
2022-11-22T08:49:49.349Z,2.57
2022-11-22T08:52:16.094Z,2.30
2022-11-22T08:54:43.139Z,2.30
2022-11-22T08:57:09.805Z,2.07
2022-11-22T08:59:36.986Z,2.00
2022-11-22T09:02:03.801Z,2.20
2022-11-22T09:04:30.580Z,2.50
2022-11-22T09:09:46.875Z,2.50
2022-11-22T09:12:14.231Z,2.40
2022-11-22T09:14:41.392Z,2.20
2022-11-22T09:17:08.690Z,2.30
2022-11-22T09:19:38.009Z,2.30
2022-11-22T09:22:05.138Z,2.37
2022-11-22T09:24:31.795Z,2.40
2022-11-22T09:26:58.473Z,2.20
2022-11-22T09:29:26.321Z,2.43
2022-11-22T09:31:53.039Z,2.30
2022-11-22T09:34:20.128Z,2.50
2022-11-22T09:36:46.753Z,1.87
2022-11-22T09:39:13.494Z,2.40
2022-11-22T09:42:23.327Z,2.10
2022-11-22T09:45:11.669Z,1.90
2022-11-22T09:47:59.426Z,2.27
2022-11-22T09:51:01.324Z,2.03
2022-11-22T09:53:45.606Z,2.17
2022-11-22T09:56:15.003Z,2.30
2022-11-22T09:58:42.108Z,2.10
2022-11-22T10:01:22.770Z,2.37
2022-11-22T10:03:58.777Z,2.33
2022-11-22T10:06:34.891Z,2.07
2022-11-22T10:09:13.734Z,2.23
2022-11-22T10:12:00.828Z,2.20
2022-11-22T10:15:07.857Z,3.60
2022-11-22T10:17:49.736Z,2.10
2022-11-22T10:20:17.394Z,2.20
2022-11-22T10:22:44.479Z,2.10
2022-11-22T10:25:36.042Z,2.30
2022-11-22T10:28:38.902Z,2.40
2022-11-22T10:31:20.475Z,2.27
2022-11-22T10:33:47.522Z,2.53
2022-11-22T10:36:20.384Z,1.90
2022-11-22T10:38:47.432Z,2.30
2022-11-22T10:41:32.489Z,1.93
2022-11-22T10:44:16.734Z,2.10
2022-11-22T10:47:19.996Z,2.07
2022-11-22T10:50:05.262Z,2.13
2022-11-22T10:52:53.479Z,2.20
2022-11-22T10:55:44.567Z,1.70
2022-11-22T10:58:23.592Z,1.93
2022-11-22T11:01:02.277Z,2.00
2022-11-22T11:03:51.210Z,2.10
2022-11-22T11:06:29.653Z,1.90
2022-11-22T11:10:02.751Z,1.80
2022-11-22T11:12:03.199Z,1.80
2022-11-22T11:14:48.469Z,1.80
2022-11-22T11:17:20.938Z,1.90
2022-11-22T11:19:50.482Z,1.90
2022-11-22T11:22:42.713Z,1.80
2022-11-22T11:25:27.215Z,2.00
2022-11-22T11:27:54.175Z,10.93
2022-11-22T11:30:20.959Z,1.40
2022-11-22T11:32:55.653Z,1.63
2022-11-22T11:35:26.748Z,2.07
2022-11-22T11:37:55.681Z,2.10
2022-11-22T11:40:28.289Z,1.60
2022-11-22T11:43:21.235Z,1.90
2022-11-22T11:45:48.287Z,1.70
2022-11-22T11:48:38.068Z,1.40
2022-11-22T11:51:15.759Z,1.50
2022-11-22T11:54:03.579Z,1.50
2022-11-22T11:56:40.696Z,1.90
2022-11-22T11:59:15.595Z,1.63
2022-11-22T12:02:14.531Z,1.77
2022-11-22T12:04:50.364Z,1.27
2022-11-22T12:07:25.352Z,1.57
2022-11-22T12:09:54.505Z,1.50
2022-11-22T12:12:39.376Z,1.50
2022-11-22T12:15:26.118Z,1.80
2022-11-22T12:18:11.974Z,1.50
2022-11-22T12:21:23.267Z,1.53
2022-11-22T12:24:19.518Z,2.20
2022-11-22T12:26:46.077Z,1.60
2022-11-22T12:29:14.400Z,1.70
2022-11-22T12:31:44.425Z,1.70
2022-11-22T12:34:18.495Z,1.70
2022-11-22T12:37:00.569Z,1.87
2022-11-22T12:39:29.150Z,1.50
2022-11-22T12:42:08.859Z,1.60
2022-11-22T12:44:42.389Z,2.00
2022-11-22T12:47:18.252Z,1.80
2022-11-22T12:50:24.834Z,1.80
2022-11-22T12:53:04.950Z,1.80
2022-11-22T12:55:42.626Z,1.83
2022-11-22T12:58:12.406Z,1.83
2022-11-22T13:00:52.184Z,1.70
2022-11-22T13:03:30.989Z,2.20
2022-11-22T13:06:00.474Z,1.93
2022-11-22T13:08:39.545Z,1.80
2022-11-22T13:11:06.669Z,2.00
2022-11-22T13:13:46.464Z,1.60
2022-11-22T13:16:13.922Z,1.80
2022-11-22T13:19:00.210Z,1.77
2022-11-22T13:21:29.952Z,1.70
2022-11-22T13:24:14.521Z,2.60
2022-11-22T13:27:16.026Z,1.90
2022-11-22T13:29:43.465Z,2.03
2022-11-22T13:32:13.116Z,1.70
2022-11-22T13:35:01.034Z,1.90
2022-11-22T13:37:30.346Z,1.90
2022-11-22T13:39:57.603Z,1.70
2022-11-22T13:42:26.974Z,1.60
2022-11-22T13:44:56.625Z,1.50
2022-11-22T13:47:23.751Z,1.33
2022-11-22T13:49:53.519Z,1.40
2022-11-22T13:52:20.694Z,1.40
2022-11-22T13:54:47.890Z,1.00
2022-11-22T13:57:26.917Z,1.47
2022-11-22T14:00:14.715Z,1.20
2022-11-22T14:03:11.490Z,1.20
2022-11-22T14:05:41.963Z,1.13
2022-11-22T14:08:29.623Z,1.50
2022-11-22T14:10:56.260Z,1.40
2022-11-22T14:13:32.300Z,1.40
2022-11-22T14:16:08.074Z,1.40
2022-11-22T14:18:55.372Z,1.10
2022-11-22T14:21:41.188Z,1.37
2022-11-22T14:24:33.203Z,1.40
2022-11-22T14:27:09.688Z,1.37
2022-11-22T14:29:37.030Z,1.50
2022-11-22T14:32:24.672Z,1.50
2022-11-22T14:35:06.341Z,1.33
2022-11-22T14:37:34.871Z,1.40
2022-11-22T14:40:07.325Z,1.20
2022-11-22T14:42:37.034Z,1.30
2022-11-22T14:45:12.220Z,1.23
2022-11-22T14:47:54.163Z,1.70
2022-11-22T14:50:44.477Z,1.30
2022-11-22T14:53:29.938Z,0.97
2022-11-22T14:56:23.409Z,1.30
2022-11-22T14:59:27.876Z,1.30
2022-11-22T15:02:03.575Z,1.20
2022-11-22T15:09:10.056Z,1.30
2022-11-22T15:09:19.185Z,1.23
2022-11-22T15:11:04.479Z,1.10
2022-11-22T15:13:56.077Z,1.30
2022-11-22T15:57:45.701Z,1.10
2022-11-22T16:00:29.414Z,1.20
2022-11-22T16:03:06.721Z,1.30
2022-11-22T16:06:08.430Z,1.60
2022-11-22T16:08:22.334Z,1.40
2022-11-22T16:10:50.985Z,1.20
2022-11-22T16:13:20.365Z,1.30
2022-11-22T16:16:11.104Z,1.10
2022-11-22T16:18:39.225Z,1.10
2022-11-22T16:21:11.991Z,1.30
2022-11-22T16:23:40.056Z,1.23
2022-11-22T16:26:30.001Z,1.30
2022-11-22T16:29:16.047Z,1.27
2022-11-22T16:31:42.739Z,1.67
2022-11-22T16:34:16.046Z,1.63
2022-11-22T16:36:43.132Z,1.50
2022-11-22T16:39:09.864Z,1.90
2022-11-22T16:41:37.013Z,1.90
2022-11-22T16:44:12.539Z,1.67
2022-11-22T16:46:42.697Z,1.40
2022-11-22T16:49:20.982Z,1.77
2022-11-22T16:51:50.201Z,1.50
2022-11-22T16:54:19.375Z,1.37
2022-11-22T16:56:46.742Z,1.30
2022-11-22T16:59:13.869Z,1.70
2022-11-22T17:01:42.606Z,1.30
2022-11-22T17:04:20.446Z,1.30
2022-11-22T17:06:47.594Z,1.50
2022-11-22T17:09:14.255Z,1.60
2022-11-22T17:11:43.325Z,1.50
2022-11-22T17:14:17.982Z,1.60
2022-11-22T17:16:48.145Z,1.60
2022-11-22T17:19:45.693Z,1.77
2022-11-22T17:22:06.871Z,1.67
2022-11-22T17:24:34.344Z,2.00
2022-11-22T17:27:01.577Z,1.43
2022-11-22T17:29:49.365Z,1.67
2022-11-22T17:32:15.363Z,1.67
2022-11-22T17:34:42.484Z,1.70
2022-11-22T17:37:12.791Z,1.57
2022-11-22T17:39:40.181Z,1.67
2022-11-22T17:42:07.318Z,1.60
2022-11-22T17:44:34.112Z,1.53
2022-11-22T17:47:00.926Z,1.50
2022-11-22T17:49:28.565Z,1.53
2022-11-22T17:51:56.121Z,1.60
2022-11-22T17:54:22.773Z,1.70
2022-11-22T17:56:49.871Z,1.60
2022-11-22T17:59:16.564Z,1.70
2022-11-22T18:01:43.365Z,1.80
2022-11-22T18:04:10.264Z,1.60
2022-11-22T18:06:37.104Z,1.80
2022-11-22T18:09:04.285Z,1.80
2022-11-22T18:11:31.253Z,2.10
2022-11-22T18:13:58.336Z,1.80
2022-11-22T18:16:28.878Z,1.47
2022-11-22T18:18:57.889Z,1.50
2022-11-22T18:21:29.795Z,1.43
2022-11-22T18:23:58.130Z,1.57
2022-11-22T18:26:41.625Z,1.87
2022-11-22T18:31:57.529Z,1.93
2022-11-22T18:34:24.446Z,1.70
2022-11-22T18:37:07.498Z,2.20
2022-11-22T18:39:37.800Z,1.57
2022-11-22T18:42:07.349Z,1.67
2022-11-22T18:44:34.017Z,1.77
2022-11-22T18:47:01.373Z,1.70
2022-11-22T18:49:28.050Z,1.70
2022-11-22T18:51:55.616Z,1.90
2022-11-22T18:54:22.930Z,2.00
2022-11-22T18:56:52.928Z,1.83
2022-11-22T18:59:20.168Z,1.70
2022-11-22T19:01:46.923Z,1.77
2022-11-22T19:04:15.088Z,2.00
2022-11-22T19:06:42.845Z,2.07
2022-11-22T19:09:10.021Z,2.10
2022-11-22T19:11:37.183Z,1.93
2022-11-22T19:14:04.361Z,1.70
2022-11-22T19:16:31.537Z,1.90
2022-11-22T19:18:58.749Z,1.80
2022-11-22T19:21:28.381Z,1.90
2022-11-22T19:23:56.431Z,1.90
2022-11-22T19:26:25.549Z,1.80
2022-11-22T19:28:55.616Z,1.73
2022-11-22T19:31:25.124Z,2.00
2022-11-22T19:33:51.897Z,1.90
2022-11-22T19:36:20.991Z,1.77
2022-11-22T19:38:48.620Z,2.10
2022-11-22T19:41:20.212Z,1.77
2022-11-22T19:43:48.152Z,1.70
2022-11-22T19:46:15.736Z,2.00
2022-11-22T19:48:47.059Z,1.93
2022-11-22T19:51:15.543Z,1.50
2022-11-22T19:53:42.910Z,1.70
2022-11-22T19:56:15.133Z,1.70
2022-11-22T19:58:42.974Z,1.87
2022-11-22T20:01:12.596Z,1.70
2022-11-22T20:03:41.258Z,1.90
2022-11-22T20:06:09.873Z,1.83
2022-11-22T20:08:37.407Z,2.00
2022-11-22T20:11:10.095Z,2.00
2022-11-22T20:13:42.619Z,1.90
2022-11-22T20:16:13.516Z,2.00
2022-11-22T20:18:40.717Z,2.00
2022-11-22T20:21:11.841Z,1.60
2022-11-22T20:23:39.365Z,1.70
2022-11-22T20:26:11.237Z,2.10
2022-11-22T20:28:39.286Z,1.80
2022-11-22T20:31:12.669Z,2.00
2022-11-22T20:33:41.858Z,2.23
2022-11-22T20:36:25.862Z,1.97
2022-11-22T20:38:53.537Z,1.90
2022-11-22T20:41:23.252Z,1.83
2022-11-22T20:43:50.497Z,2.03
2022-11-22T20:46:22.542Z,2.13
2022-11-22T20:48:50.018Z,2.03
2022-11-22T20:51:19.297Z,2.17
2022-11-22T20:53:46.768Z,1.83
2022-11-22T20:56:14.838Z,2.00
2022-11-22T20:58:41.909Z,2.17
2022-11-22T21:01:12.791Z,2.00
2022-11-22T21:03:39.880Z,1.93
2022-11-22T21:06:07.017Z,2.20
2022-11-22T21:08:33.998Z,2.00
2022-11-22T21:11:08.239Z,1.87
2022-11-22T21:13:35.314Z,2.30
2022-11-22T21:16:21.542Z,2.30
2022-11-22T21:19:01.554Z,2.30
2022-11-22T21:21:29.838Z,2.33
2022-11-22T21:23:59.429Z,2.20
2022-11-22T21:26:27.213Z,2.10
2022-11-22T21:28:54.436Z,2.20
2022-11-22T21:31:22.485Z,2.07
2022-11-22T21:33:49.537Z,2.30
2022-11-22T21:36:16.625Z,2.23
2022-11-22T21:38:43.685Z,2.50
2022-11-22T21:44:07.244Z,2.27
2022-11-22T21:46:33.945Z,2.13
2022-11-22T21:49:01.027Z,2.33
2022-11-22T21:51:27.952Z,2.13
2022-11-22T21:53:58.833Z,2.60
2022-11-22T21:56:26.599Z,2.30
2022-11-22T21:58:53.338Z,2.30
2022-11-22T22:01:20.044Z,2.10
2022-11-22T22:03:47.186Z,2.33
2022-11-22T22:06:13.842Z,2.07
2022-11-22T22:08:40.923Z,2.20
2022-11-22T22:11:08.160Z,2.10
2022-11-22T22:13:34.917Z,2.10
2022-11-22T22:16:06.533Z,2.30
2022-11-22T22:18:37.181Z,2.33
2022-11-22T22:21:07.158Z,2.20
2022-11-22T22:23:35.408Z,2.33
2022-11-22T22:26:04.371Z,2.50
2022-11-22T22:28:33.020Z,2.50
2022-11-22T22:31:08.709Z,2.20
2022-11-22T22:33:37.109Z,2.27
2022-11-22T22:36:04.783Z,2.50
2022-11-22T22:38:32.530Z,2.40
2022-11-22T22:41:01.613Z,2.23
2022-11-22T22:43:33.454Z,2.33
2022-11-22T22:46:06.470Z,2.47
2022-11-22T22:48:33.725Z,2.40
2022-11-22T22:51:08.024Z,2.53
2022-11-22T22:53:35.354Z,2.40
2022-11-22T22:56:02.477Z,2.47
2022-11-22T22:58:29.583Z,1.93
2022-11-22T23:01:12.458Z,2.50
2022-11-22T23:03:39.596Z,2.43
2022-11-22T23:06:08.138Z,2.27
2022-11-22T23:08:35.335Z,2.10
2022-11-22T23:11:10.307Z,2.00
2022-11-22T23:13:40.679Z,2.20
2022-11-22T23:16:10.160Z,2.23
2022-11-22T23:18:39.226Z,2.20
2022-11-22T23:21:07.763Z,2.30
2022-11-22T23:23:35.108Z,1.90
2022-11-22T23:26:07.650Z,2.13
2022-11-22T23:28:35.101Z,2.47
2022-11-22T23:31:10.368Z,2.23
2022-11-22T23:33:37.612Z,2.53
2022-11-22T23:36:09.572Z,2.10
2022-11-22T23:38:36.706Z,2.03
2022-11-22T23:41:04.137Z,2.30
2022-11-22T23:43:31.504Z,2.17
2022-11-22T23:45:58.673Z,1.80
2022-11-22T23:48:26.280Z,2.20
2022-11-22T23:50:53.028Z,2.20
2022-11-22T23:53:20.481Z,2.30
2022-11-22T23:55:47.615Z,2.00
2022-11-22T23:58:14.283Z,2.03
